sensor_id;sensor_type;location;lat;lon;timestamp;P1;durP1;ratioP1;P2;durP2;ratioP2
4021;SDS011;2025;48.260;16.432;2023-11-19T00:01:27;9.60;;;3.45;;
4021;SDS011;2025;48.260;16.432;2023-11-19T00:03:54;8.35;;;3.38;;
4021;SDS011;2025;48.260;16.432;2023-11-19T00:06:21;9.35;;;3.35;;
4021;SDS011;2025;48.260;16.432;2023-11-19T00:08:48;8.32;;;3.42;;
4021;SDS011;2025;48.260;16.432;2023-11-19T00:11:16;8.35;;;4.03;;
4021;SDS011;2025;48.260;16.432;2023-11-19T00:13:43;10.48;;;4.55;;
4021;SDS011;2025;48.260;16.432;2023-11-19T00:16:11;8.95;;;4.95;;
4021;SDS011;2025;48.260;16.432;2023-11-19T00:18:37;11.48;;;3.63;;
4021;SDS011;2025;48.260;16.432;2023-11-19T00:21:05;11.07;;;3.70;;
4021;SDS011;2025;48.260;16.432;2023-11-19T00:23:33;10.52;;;4.45;;
4021;SDS011;2025;48.260;16.432;2023-11-19T00:26:00;9.88;;;4.50;;
4021;SDS011;2025;48.260;16.432;2023-11-19T00:28:28;9.95;;;4.15;;
4021;SDS011;2025;48.260;16.432;2023-11-19T00:30:55;10.50;;;4.78;;
4021;SDS011;2025;48.260;16.432;2023-11-19T00:33:22;9.25;;;3.95;;
4021;SDS011;2025;48.260;16.432;2023-11-19T00:35:49;11.13;;;4.70;;
4021;SDS011;2025;48.260;16.432;2023-11-19T00:38:16;12.20;;;4.95;;
4021;SDS011;2025;48.260;16.432;2023-11-19T00:40:43;11.15;;;4.15;;
4021;SDS011;2025;48.260;16.432;2023-11-19T00:43:10;10.02;;;3.83;;
4021;SDS011;2025;48.260;16.432;2023-11-19T00:45:39;11.30;;;4.13;;
4021;SDS011;2025;48.260;16.432;2023-11-19T00:48:06;10.50;;;4.75;;
4021;SDS011;2025;48.260;16.432;2023-11-19T00:50:33;14.48;;;5.80;;
4021;SDS011;2025;48.260;16.432;2023-11-19T00:53:00;12.27;;;5.53;;
4021;SDS011;2025;48.260;16.432;2023-11-19T00:55:28;11.90;;;4.80;;
4021;SDS011;2025;48.260;16.432;2023-11-19T00:57:55;12.45;;;5.93;;
4021;SDS011;2025;48.260;16.432;2023-11-19T01:00:23;13.88;;;5.47;;
4021;SDS011;2025;48.260;16.432;2023-11-19T01:02:53;12.68;;;5.35;;
4021;SDS011;2025;48.260;16.432;2023-11-19T01:05:20;10.57;;;4.93;;
4021;SDS011;2025;48.260;16.432;2023-11-19T01:07:48;13.30;;;5.25;;
4021;SDS011;2025;48.260;16.432;2023-11-19T01:10:17;10.18;;;4.32;;
4021;SDS011;2025;48.260;16.432;2023-11-19T01:12:45;11.63;;;5.22;;
4021;SDS011;2025;48.260;16.432;2023-11-19T01:15:12;12.48;;;5.13;;
4021;SDS011;2025;48.260;16.432;2023-11-19T01:17:39;9.07;;;4.40;;
4021;SDS011;2025;48.260;16.432;2023-11-19T01:20:08;12.02;;;4.75;;
4021;SDS011;2025;48.260;16.432;2023-11-19T01:22:38;11.40;;;4.68;;
4021;SDS011;2025;48.260;16.432;2023-11-19T01:25:05;10.43;;;3.85;;
4021;SDS011;2025;48.260;16.432;2023-11-19T01:27:33;12.20;;;4.60;;
4021;SDS011;2025;48.260;16.432;2023-11-19T01:30:01;12.32;;;5.18;;
4021;SDS011;2025;48.260;16.432;2023-11-19T01:32:29;10.20;;;5.13;;
4021;SDS011;2025;48.260;16.432;2023-11-19T01:34:56;11.07;;;4.47;;
4021;SDS011;2025;48.260;16.432;2023-11-19T01:37:24;12.18;;;4.75;;
4021;SDS011;2025;48.260;16.432;2023-11-19T01:39:51;10.27;;;4.60;;
4021;SDS011;2025;48.260;16.432;2023-11-19T01:42:18;8.63;;;3.80;;
4021;SDS011;2025;48.260;16.432;2023-11-19T01:44:54;10.68;;;4.18;;
4021;SDS011;2025;48.260;16.432;2023-11-19T01:47:24;10.05;;;4.07;;
4021;SDS011;2025;48.260;16.432;2023-11-19T01:49:52;9.20;;;3.80;;
4021;SDS011;2025;48.260;16.432;2023-11-19T01:52:19;10.07;;;5.28;;
4021;SDS011;2025;48.260;16.432;2023-11-19T01:54:48;11.82;;;4.93;;
4021;SDS011;2025;48.260;16.432;2023-11-19T01:57:16;10.75;;;5.18;;
4021;SDS011;2025;48.260;16.432;2023-11-19T01:59:43;11.55;;;5.45;;
4021;SDS011;2025;48.260;16.432;2023-11-19T02:02:10;10.98;;;4.57;;
4021;SDS011;2025;48.260;16.432;2023-11-19T02:04:38;11.48;;;4.18;;
4021;SDS011;2025;48.260;16.432;2023-11-19T02:07:06;10.32;;;3.58;;
4021;SDS011;2025;48.260;16.432;2023-11-19T02:09:34;9.27;;;4.95;;
4021;SDS011;2025;48.260;16.432;2023-11-19T02:12:02;10.10;;;4.57;;
4021;SDS011;2025;48.260;16.432;2023-11-19T02:14:30;9.07;;;4.13;;
4021;SDS011;2025;48.260;16.432;2023-11-19T02:16:57;12.45;;;5.28;;
4021;SDS011;2025;48.260;16.432;2023-11-19T02:19:24;9.75;;;4.25;;
4021;SDS011;2025;48.260;16.432;2023-11-19T02:21:51;11.43;;;4.28;;
4021;SDS011;2025;48.260;16.432;2023-11-19T02:24:18;10.75;;;3.90;;
4021;SDS011;2025;48.260;16.432;2023-11-19T02:26:50;9.23;;;4.88;;
4021;SDS011;2025;48.260;16.432;2023-11-19T02:29:28;10.52;;;4.13;;
4021;SDS011;2025;48.260;16.432;2023-11-19T02:31:55;9.07;;;4.57;;
4021;SDS011;2025;48.260;16.432;2023-11-19T02:34:22;15.18;;;4.50;;
4021;SDS011;2025;48.260;16.432;2023-11-19T02:36:49;8.70;;;3.67;;
4021;SDS011;2025;48.260;16.432;2023-11-19T02:39:18;9.27;;;3.83;;
4021;SDS011;2025;48.260;16.432;2023-11-19T02:41:46;10.32;;;3.85;;
4021;SDS011;2025;48.260;16.432;2023-11-19T02:44:16;9.10;;;3.65;;
4021;SDS011;2025;48.260;16.432;2023-11-19T02:46:44;8.73;;;4.43;;
4021;SDS011;2025;48.260;16.432;2023-11-19T02:49:13;8.82;;;4.38;;
4021;SDS011;2025;48.260;16.432;2023-11-19T02:51:40;10.25;;;4.18;;
4021;SDS011;2025;48.260;16.432;2023-11-19T02:54:07;8.98;;;3.78;;
4021;SDS011;2025;48.260;16.432;2023-11-19T02:56:35;8.38;;;3.85;;
4021;SDS011;2025;48.260;16.432;2023-11-19T02:59:04;9.02;;;3.33;;
4021;SDS011;2025;48.260;16.432;2023-11-19T03:01:40;9.57;;;4.25;;
4021;SDS011;2025;48.260;16.432;2023-11-19T03:04:10;8.77;;;2.63;;
4021;SDS011;2025;48.260;16.432;2023-11-19T03:06:42;6.93;;;2.95;;
4021;SDS011;2025;48.260;16.432;2023-11-19T03:09:09;7.28;;;2.72;;
4021;SDS011;2025;48.260;16.432;2023-11-19T03:11:36;7.68;;;3.33;;
4021;SDS011;2025;48.260;16.432;2023-11-19T03:14:03;6.07;;;2.92;;
4021;SDS011;2025;48.260;16.432;2023-11-19T03:16:30;7.63;;;2.25;;
4021;SDS011;2025;48.260;16.432;2023-11-19T03:18:57;7.80;;;3.33;;
4021;SDS011;2025;48.260;16.432;2023-11-19T03:21:30;8.05;;;3.15;;
4021;SDS011;2025;48.260;16.432;2023-11-19T03:23:57;6.97;;;3.10;;
4021;SDS011;2025;48.260;16.432;2023-11-19T03:26:25;6.50;;;3.03;;
4021;SDS011;2025;48.260;16.432;2023-11-19T03:28:53;7.60;;;3.20;;
4021;SDS011;2025;48.260;16.432;2023-11-19T03:31:22;7.78;;;3.13;;
4021;SDS011;2025;48.260;16.432;2023-11-19T03:33:50;6.22;;;3.38;;
4021;SDS011;2025;48.260;16.432;2023-11-19T03:36:17;7.20;;;2.53;;
4021;SDS011;2025;48.260;16.432;2023-11-19T03:38:45;7.57;;;2.40;;
4021;SDS011;2025;48.260;16.432;2023-11-19T03:41:12;6.55;;;3.42;;
4021;SDS011;2025;48.260;16.432;2023-11-19T03:43:40;5.88;;;2.00;;
4021;SDS011;2025;48.260;16.432;2023-11-19T03:46:15;7.40;;;2.30;;
4021;SDS011;2025;48.260;16.432;2023-11-19T03:48:43;7.93;;;2.47;;
4021;SDS011;2025;48.260;16.432;2023-11-19T03:51:11;6.63;;;2.80;;
4021;SDS011;2025;48.260;16.432;2023-11-19T03:53:40;9.40;;;3.63;;
4021;SDS011;2025;48.260;16.432;2023-11-19T03:56:09;8.20;;;2.92;;
4021;SDS011;2025;48.260;16.432;2023-11-19T03:58:37;7.88;;;3.50;;
4021;SDS011;2025;48.260;16.432;2023-11-19T04:01:04;6.93;;;2.55;;
4021;SDS011;2025;48.260;16.432;2023-11-19T04:03:32;7.68;;;2.72;;
4021;SDS011;2025;48.260;16.432;2023-11-19T04:05:59;6.85;;;3.03;;
4021;SDS011;2025;48.260;16.432;2023-11-19T04:08:25;7.07;;;2.67;;
4021;SDS011;2025;48.260;16.432;2023-11-19T04:10:52;8.02;;;2.65;;
4021;SDS011;2025;48.260;16.432;2023-11-19T04:13:21;7.25;;;2.63;;
4021;SDS011;2025;48.260;16.432;2023-11-19T04:15:49;7.18;;;3.10;;
4021;SDS011;2025;48.260;16.432;2023-11-19T04:18:16;6.55;;;2.95;;
4021;SDS011;2025;48.260;16.432;2023-11-19T04:20:43;7.03;;;2.33;;
4021;SDS011;2025;48.260;16.432;2023-11-19T04:23:10;7.15;;;2.85;;
4021;SDS011;2025;48.260;16.432;2023-11-19T04:25:37;7.07;;;3.08;;
4021;SDS011;2025;48.260;16.432;2023-11-19T04:28:04;8.55;;;2.72;;
4021;SDS011;2025;48.260;16.432;2023-11-19T04:30:33;7.72;;;2.88;;
4021;SDS011;2025;48.260;16.432;2023-11-19T04:33:00;9.48;;;3.50;;
4021;SDS011;2025;48.260;16.432;2023-11-19T04:35:27;8.75;;;3.60;;
4021;SDS011;2025;48.260;16.432;2023-11-19T04:37:54;9.93;;;4.32;;
4021;SDS011;2025;48.260;16.432;2023-11-19T04:40:22;7.30;;;2.58;;
4021;SDS011;2025;48.260;16.432;2023-11-19T04:42:49;8.10;;;3.00;;
4021;SDS011;2025;48.260;16.432;2023-11-19T04:45:16;8.35;;;3.78;;
4021;SDS011;2025;48.260;16.432;2023-11-19T04:47:44;8.70;;;3.38;;
4021;SDS011;2025;48.260;16.432;2023-11-19T04:50:12;10.02;;;3.38;;
4021;SDS011;2025;48.260;16.432;2023-11-19T04:52:39;8.32;;;3.63;;
4021;SDS011;2025;48.260;16.432;2023-11-19T04:55:07;8.65;;;3.33;;
4021;SDS011;2025;48.260;16.432;2023-11-19T04:57:37;9.13;;;3.53;;
4021;SDS011;2025;48.260;16.432;2023-11-19T05:00:04;7.78;;;3.35;;
4021;SDS011;2025;48.260;16.432;2023-11-19T05:02:32;10.40;;;4.15;;
4021;SDS011;2025;48.260;16.432;2023-11-19T05:05:01;9.00;;;4.65;;
4021;SDS011;2025;48.260;16.432;2023-11-19T05:07:29;12.48;;;4.35;;
4021;SDS011;2025;48.260;16.432;2023-11-19T05:09:55;9.85;;;4.43;;
4021;SDS011;2025;48.260;16.432;2023-11-19T05:12:23;9.02;;;5.20;;
4021;SDS011;2025;48.260;16.432;2023-11-19T05:14:50;10.80;;;4.57;;
4021;SDS011;2025;48.260;16.432;2023-11-19T05:17:17;9.43;;;4.38;;
4021;SDS011;2025;48.260;16.432;2023-11-19T05:19:44;9.70;;;4.53;;
4021;SDS011;2025;48.260;16.432;2023-11-19T05:22:13;9.68;;;4.50;;
4021;SDS011;2025;48.260;16.432;2023-11-19T05:24:40;10.60;;;4.93;;
4021;SDS011;2025;48.260;16.432;2023-11-19T05:27:07;11.93;;;4.82;;
4021;SDS011;2025;48.260;16.432;2023-11-19T05:29:36;9.10;;;3.65;;
4021;SDS011;2025;48.260;16.432;2023-11-19T05:32:04;10.88;;;5.05;;
4021;SDS011;2025;48.260;16.432;2023-11-19T05:34:32;10.38;;;4.57;;
4021;SDS011;2025;48.260;16.432;2023-11-19T05:36:59;10.60;;;4.22;;
4021;SDS011;2025;48.260;16.432;2023-11-19T05:39:28;13.10;;;4.32;;
4021;SDS011;2025;48.260;16.432;2023-11-19T05:41:55;10.77;;;4.18;;
4021;SDS011;2025;48.260;16.432;2023-11-19T05:44:23;10.40;;;4.85;;
4021;SDS011;2025;48.260;16.432;2023-11-19T05:46:50;8.95;;;3.92;;
4021;SDS011;2025;48.260;16.432;2023-11-19T05:49:17;10.70;;;5.57;;
4021;SDS011;2025;48.260;16.432;2023-11-19T05:51:44;11.70;;;4.55;;
4021;SDS011;2025;48.260;16.432;2023-11-19T05:54:11;8.80;;;3.97;;
4021;SDS011;2025;48.260;16.432;2023-11-19T05:56:40;12.52;;;5.18;;
4021;SDS011;2025;48.260;16.432;2023-11-19T05:59:07;12.27;;;5.07;;
4021;SDS011;2025;48.260;16.432;2023-11-19T06:01:40;11.15;;;4.57;;
4021;SDS011;2025;48.260;16.432;2023-11-19T06:04:08;10.80;;;5.22;;
4021;SDS011;2025;48.260;16.432;2023-11-19T06:06:35;14.80;;;5.07;;
4021;SDS011;2025;48.260;16.432;2023-11-19T06:09:02;11.27;;;4.75;;
4021;SDS011;2025;48.260;16.432;2023-11-19T06:11:31;11.80;;;5.38;;
4021;SDS011;2025;48.260;16.432;2023-11-19T06:14:00;10.13;;;3.97;;
4021;SDS011;2025;48.260;16.432;2023-11-19T06:16:30;10.77;;;5.10;;
4021;SDS011;2025;48.260;16.432;2023-11-19T06:18:58;12.43;;;6.10;;
4021;SDS011;2025;48.260;16.432;2023-11-19T06:21:25;9.50;;;4.13;;
4021;SDS011;2025;48.260;16.432;2023-11-19T06:23:52;10.60;;;4.43;;
4021;SDS011;2025;48.260;16.432;2023-11-19T06:26:19;9.95;;;4.95;;
4021;SDS011;2025;48.260;16.432;2023-11-19T06:28:47;12.75;;;5.10;;
4021;SDS011;2025;48.260;16.432;2023-11-19T06:31:16;9.35;;;4.25;;
4021;SDS011;2025;48.260;16.432;2023-11-19T06:33:43;10.98;;;5.72;;
4021;SDS011;2025;48.260;16.432;2023-11-19T06:36:10;12.00;;;5.03;;
4021;SDS011;2025;48.260;16.432;2023-11-19T06:38:37;11.93;;;6.00;;
4021;SDS011;2025;48.260;16.432;2023-11-19T06:41:06;12.68;;;5.70;;
4021;SDS011;2025;48.260;16.432;2023-11-19T06:43:34;12.27;;;5.78;;
4021;SDS011;2025;48.260;16.432;2023-11-19T06:46:01;11.73;;;5.30;;
4021;SDS011;2025;48.260;16.432;2023-11-19T06:48:32;12.45;;;5.60;;
4021;SDS011;2025;48.260;16.432;2023-11-19T06:50:59;11.10;;;4.50;;
4021;SDS011;2025;48.260;16.432;2023-11-19T06:53:26;11.35;;;5.40;;
4021;SDS011;2025;48.260;16.432;2023-11-19T06:55:53;12.23;;;7.28;;
4021;SDS011;2025;48.260;16.432;2023-11-19T06:58:20;12.35;;;5.22;;
4021;SDS011;2025;48.260;16.432;2023-11-19T07:00:47;12.85;;;4.45;;
4021;SDS011;2025;48.260;16.432;2023-11-19T07:03:16;13.45;;;5.50;;
4021;SDS011;2025;48.260;16.432;2023-11-19T07:05:45;11.15;;;5.13;;
4021;SDS011;2025;48.260;16.432;2023-11-19T07:08:11;10.05;;;4.07;;
4021;SDS011;2025;48.260;16.432;2023-11-19T07:10:38;12.07;;;4.93;;
4021;SDS011;2025;48.260;16.432;2023-11-19T07:13:05;10.95;;;4.57;;
4021;SDS011;2025;48.260;16.432;2023-11-19T07:15:31;12.73;;;4.72;;
4021;SDS011;2025;48.260;16.432;2023-11-19T07:17:58;10.82;;;4.10;;
4021;SDS011;2025;48.260;16.432;2023-11-19T07:20:26;11.43;;;5.03;;
4021;SDS011;2025;48.260;16.432;2023-11-19T07:22:54;15.80;;;5.78;;
4021;SDS011;2025;48.260;16.432;2023-11-19T07:25:22;12.02;;;5.30;;
4021;SDS011;2025;48.260;16.432;2023-11-19T07:27:51;12.68;;;5.95;;
4021;SDS011;2025;48.260;16.432;2023-11-19T07:30:18;12.70;;;6.03;;
4021;SDS011;2025;48.260;16.432;2023-11-19T07:32:46;13.30;;;5.25;;
4021;SDS011;2025;48.260;16.432;2023-11-19T07:35:13;11.85;;;5.28;;
4021;SDS011;2025;48.260;16.432;2023-11-19T07:37:40;12.98;;;6.10;;
4021;SDS011;2025;48.260;16.432;2023-11-19T07:40:09;13.35;;;6.38;;
4021;SDS011;2025;48.260;16.432;2023-11-19T07:42:37;12.70;;;5.45;;
4021;SDS011;2025;48.260;16.432;2023-11-19T07:45:05;13.70;;;6.55;;
4021;SDS011;2025;48.260;16.432;2023-11-19T07:47:32;12.77;;;5.07;;
4021;SDS011;2025;48.260;16.432;2023-11-19T07:49:59;12.65;;;5.22;;
4021;SDS011;2025;48.260;16.432;2023-11-19T07:52:26;14.45;;;6.10;;
4021;SDS011;2025;48.260;16.432;2023-11-19T07:54:54;12.82;;;5.28;;
4021;SDS011;2025;48.260;16.432;2023-11-19T07:57:22;14.85;;;5.07;;
4021;SDS011;2025;48.260;16.432;2023-11-19T07:59:52;11.50;;;5.30;;
4021;SDS011;2025;48.260;16.432;2023-11-19T08:02:19;14.05;;;6.13;;
4021;SDS011;2025;48.260;16.432;2023-11-19T08:04:46;13.38;;;7.15;;
4021;SDS011;2025;48.260;16.432;2023-11-19T08:07:16;14.10;;;6.40;;
4021;SDS011;2025;48.260;16.432;2023-11-19T08:09:44;13.18;;;5.28;;
4021;SDS011;2025;48.260;16.432;2023-11-19T08:12:11;14.18;;;6.60;;
4021;SDS011;2025;48.260;16.432;2023-11-19T08:14:41;13.80;;;7.22;;
4021;SDS011;2025;48.260;16.432;2023-11-19T08:17:09;15.30;;;5.18;;
4021;SDS011;2025;48.260;16.432;2023-11-19T08:19:36;12.65;;;5.72;;
4021;SDS011;2025;48.260;16.432;2023-11-19T08:22:03;11.50;;;5.78;;
4021;SDS011;2025;48.260;16.432;2023-11-19T08:24:30;10.45;;;4.03;;
4021;SDS011;2025;48.260;16.432;2023-11-19T08:26:57;11.60;;;4.82;;
4021;SDS011;2025;48.260;16.432;2023-11-19T08:29:24;11.38;;;4.63;;
4021;SDS011;2025;48.260;16.432;2023-11-19T08:31:53;11.65;;;4.70;;
4021;SDS011;2025;48.260;16.432;2023-11-19T08:34:20;9.65;;;4.32;;
4021;SDS011;2025;48.260;16.432;2023-11-19T08:36:49;8.60;;;3.53;;
4021;SDS011;2025;48.260;16.432;2023-11-19T08:39:18;8.13;;;3.80;;
4021;SDS011;2025;48.260;16.432;2023-11-19T08:41:46;10.52;;;5.43;;
4021;SDS011;2025;48.260;16.432;2023-11-19T08:44:13;9.18;;;3.60;;
4021;SDS011;2025;48.260;16.432;2023-11-19T08:46:45;10.15;;;4.00;;
4021;SDS011;2025;48.260;16.432;2023-11-19T08:49:15;9.73;;;3.22;;
4021;SDS011;2025;48.260;16.432;2023-11-19T08:51:42;8.57;;;3.55;;
4021;SDS011;2025;48.260;16.432;2023-11-19T08:54:09;8.70;;;3.78;;
4021;SDS011;2025;48.260;16.432;2023-11-19T08:56:38;7.53;;;3.35;;
4021;SDS011;2025;48.260;16.432;2023-11-19T08:59:05;7.70;;;3.40;;
4021;SDS011;2025;48.260;16.432;2023-11-19T09:01:32;8.45;;;3.58;;
4021;SDS011;2025;48.260;16.432;2023-11-19T09:03:59;8.25;;;4.10;;
4021;SDS011;2025;48.260;16.432;2023-11-19T09:06:27;9.15;;;3.47;;
4021;SDS011;2025;48.260;16.432;2023-11-19T09:08:54;6.97;;;2.70;;
4021;SDS011;2025;48.260;16.432;2023-11-19T09:11:25;7.35;;;3.55;;
4021;SDS011;2025;48.260;16.432;2023-11-19T09:13:52;9.65;;;4.53;;
4021;SDS011;2025;48.260;16.432;2023-11-19T09:16:19;8.75;;;4.13;;
4021;SDS011;2025;48.260;16.432;2023-11-19T09:18:46;7.28;;;3.10;;
4021;SDS011;2025;48.260;16.432;2023-11-19T09:21:13;8.35;;;3.33;;
4021;SDS011;2025;48.260;16.432;2023-11-19T09:23:42;7.38;;;2.72;;
4021;SDS011;2025;48.260;16.432;2023-11-19T09:26:10;7.85;;;3.00;;
4021;SDS011;2025;48.260;16.432;2023-11-19T09:28:37;8.65;;;2.90;;
4021;SDS011;2025;48.260;16.432;2023-11-19T09:31:12;7.65;;;2.63;;
4021;SDS011;2025;48.260;16.432;2023-11-19T09:33:39;6.70;;;2.88;;
4021;SDS011;2025;48.260;16.432;2023-11-19T09:36:06;6.50;;;2.58;;
4021;SDS011;2025;48.260;16.432;2023-11-19T09:38:34;6.35;;;2.63;;
4021;SDS011;2025;48.260;16.432;2023-11-19T09:41:05;6.03;;;2.00;;
4021;SDS011;2025;48.260;16.432;2023-11-19T09:43:33;7.93;;;2.83;;
4021;SDS011;2025;48.260;16.432;2023-11-19T09:46:01;6.97;;;2.47;;
4021;SDS011;2025;48.260;16.432;2023-11-19T09:48:32;7.22;;;2.33;;
4021;SDS011;2025;48.260;16.432;2023-11-19T09:50:59;8.02;;;3.40;;
4021;SDS011;2025;48.260;16.432;2023-11-19T09:53:27;5.90;;;2.25;;
4021;SDS011;2025;48.260;16.432;2023-11-19T09:55:55;7.93;;;3.13;;
4021;SDS011;2025;48.260;16.432;2023-11-19T09:58:23;6.43;;;2.20;;
4021;SDS011;2025;48.260;16.432;2023-11-19T10:00:50;6.55;;;2.60;;
4021;SDS011;2025;48.260;16.432;2023-11-19T10:03:18;5.97;;;2.50;;
4021;SDS011;2025;48.260;16.432;2023-11-19T10:05:45;6.38;;;2.15;;
4021;SDS011;2025;48.260;16.432;2023-11-19T10:08:12;6.50;;;1.98;;
4021;SDS011;2025;48.260;16.432;2023-11-19T10:10:39;6.88;;;2.17;;
4021;SDS011;2025;48.260;16.432;2023-11-19T10:13:06;5.90;;;2.45;;
4021;SDS011;2025;48.260;16.432;2023-11-19T10:15:37;5.47;;;2.63;;
4021;SDS011;2025;48.260;16.432;2023-11-19T10:18:04;5.80;;;2.22;;
4021;SDS011;2025;48.260;16.432;2023-11-19T10:20:34;5.90;;;2.10;;
4021;SDS011;2025;48.260;16.432;2023-11-19T10:23:01;6.30;;;2.72;;
4021;SDS011;2025;48.260;16.432;2023-11-19T10:25:29;6.03;;;2.50;;
4021;SDS011;2025;48.260;16.432;2023-11-19T10:27:57;7.03;;;2.33;;
4021;SDS011;2025;48.260;16.432;2023-11-19T10:30:24;5.85;;;2.45;;
4021;SDS011;2025;48.260;16.432;2023-11-19T10:33:03;5.57;;;2.17;;
4021;SDS011;2025;48.260;16.432;2023-11-19T10:35:32;5.85;;;2.10;;
4021;SDS011;2025;48.260;16.432;2023-11-19T10:38:00;8.60;;;3.08;;
4021;SDS011;2025;48.260;16.432;2023-11-19T10:40:39;7.15;;;2.70;;
4021;SDS011;2025;48.260;16.432;2023-11-19T10:43:07;6.90;;;2.00;;
4021;SDS011;2025;48.260;16.432;2023-11-19T10:45:34;5.32;;;1.45;;
4021;SDS011;2025;48.260;16.432;2023-11-19T10:48:04;5.78;;;2.00;;
4021;SDS011;2025;48.260;16.432;2023-11-19T10:50:32;5.60;;;1.92;;
4021;SDS011;2025;48.260;16.432;2023-11-19T10:53:00;5.88;;;2.08;;
4021;SDS011;2025;48.260;16.432;2023-11-19T10:55:28;7.20;;;1.90;;
4021;SDS011;2025;48.260;16.432;2023-11-19T10:58:00;6.78;;;2.03;;
4021;SDS011;2025;48.260;16.432;2023-11-19T11:00:29;6.13;;;2.45;;
4021;SDS011;2025;48.260;16.432;2023-11-19T11:03:00;7.97;;;2.50;;
4021;SDS011;2025;48.260;16.432;2023-11-19T11:05:30;6.13;;;2.25;;
4021;SDS011;2025;48.260;16.432;2023-11-19T11:08:00;8.00;;;2.60;;
4021;SDS011;2025;48.260;16.432;2023-11-19T11:10:27;6.40;;;2.55;;
4021;SDS011;2025;48.260;16.432;2023-11-19T11:12:59;7.22;;;2.38;;
4021;SDS011;2025;48.260;16.432;2023-11-19T11:15:29;7.75;;;4.20;;
4021;SDS011;2025;48.260;16.432;2023-11-19T11:17:59;7.22;;;2.47;;
4021;SDS011;2025;48.260;16.432;2023-11-19T11:20:29;6.30;;;1.98;;
4021;SDS011;2025;48.260;16.432;2023-11-19T11:23:13;7.20;;;3.03;;
4021;SDS011;2025;48.260;16.432;2023-11-19T11:25:58;9.05;;;2.85;;
4021;SDS011;2025;48.260;16.432;2023-11-19T11:28:39;10.38;;;4.40;;
4021;SDS011;2025;48.260;16.432;2023-11-19T11:31:15;8.60;;;3.65;;
4021;SDS011;2025;48.260;16.432;2023-11-19T11:33:59;9.45;;;4.38;;
4021;SDS011;2025;48.260;16.432;2023-11-19T11:36:46;11.27;;;4.18;;
4021;SDS011;2025;48.260;16.432;2023-11-19T11:39:20;10.95;;;4.70;;
4021;SDS011;2025;48.260;16.432;2023-11-19T11:45:00;10.05;;;4.53;;
4021;SDS011;2025;48.260;16.432;2023-11-19T11:50:49;10.35;;;4.28;;
4021;SDS011;2025;48.260;16.432;2023-11-19T11:53:18;9.40;;;4.45;;
4021;SDS011;2025;48.260;16.432;2023-11-19T11:55:55;10.43;;;4.38;;
4021;SDS011;2025;48.260;16.432;2023-11-19T11:58:31;9.63;;;4.65;;
4021;SDS011;2025;48.260;16.432;2023-11-19T12:01:01;10.57;;;5.03;;
4021;SDS011;2025;48.260;16.432;2023-11-19T12:03:32;10.63;;;5.53;;
4021;SDS011;2025;48.260;16.432;2023-11-19T12:06:00;11.25;;;5.15;;
4021;SDS011;2025;48.260;16.432;2023-11-19T12:08:30;10.73;;;5.47;;
4021;SDS011;2025;48.260;16.432;2023-11-19T12:10:57;13.50;;;5.47;;
4021;SDS011;2025;48.260;16.432;2023-11-19T12:13:25;12.20;;;5.38;;
4021;SDS011;2025;48.260;16.432;2023-11-19T12:16:10;11.38;;;5.68;;
4021;SDS011;2025;48.260;16.432;2023-11-19T12:18:38;10.93;;;4.85;;
4021;SDS011;2025;48.260;16.432;2023-11-19T12:21:07;11.82;;;5.10;;
4021;SDS011;2025;48.260;16.432;2023-11-19T12:23:59;13.23;;;6.18;;
4021;SDS011;2025;48.260;16.432;2023-11-19T12:26:38;12.05;;;5.18;;
4021;SDS011;2025;48.260;16.432;2023-11-19T12:29:06;11.63;;;5.63;;
4021;SDS011;2025;48.260;16.432;2023-11-19T12:31:34;10.25;;;4.80;;
4021;SDS011;2025;48.260;16.432;2023-11-19T12:34:08;12.60;;;4.72;;
4021;SDS011;2025;48.260;16.432;2023-11-19T12:36:37;11.60;;;4.68;;
4021;SDS011;2025;48.260;16.432;2023-11-19T12:39:11;10.15;;;4.90;;
4021;SDS011;2025;48.260;16.432;2023-11-19T12:41:49;13.30;;;5.80;;
4021;SDS011;2025;48.260;16.432;2023-11-19T12:44:19;9.10;;;4.30;;
4021;SDS011;2025;48.260;16.432;2023-11-19T12:46:46;12.13;;;4.68;;
4021;SDS011;2025;48.260;16.432;2023-11-19T12:49:25;11.32;;;5.65;;
4021;SDS011;2025;48.260;16.432;2023-11-19T12:51:52;11.32;;;4.38;;
4021;SDS011;2025;48.260;16.432;2023-11-19T12:54:30;9.90;;;4.25;;
4021;SDS011;2025;48.260;16.432;2023-11-19T12:56:58;12.20;;;5.20;;
4021;SDS011;2025;48.260;16.432;2023-11-19T12:59:25;11.02;;;5.10;;
4021;SDS011;2025;48.260;16.432;2023-11-19T13:01:56;11.95;;;5.38;;
4021;SDS011;2025;48.260;16.432;2023-11-19T13:04:23;13.15;;;5.38;;
4021;SDS011;2025;48.260;16.432;2023-11-19T13:06:53;11.60;;;4.50;;
4021;SDS011;2025;48.260;16.432;2023-11-19T13:09:23;12.48;;;4.40;;
4021;SDS011;2025;48.260;16.432;2023-11-19T13:11:51;10.93;;;5.82;;
4021;SDS011;2025;48.260;16.432;2023-11-19T13:14:18;10.93;;;4.63;;
4021;SDS011;2025;48.260;16.432;2023-11-19T13:16:45;15.15;;;5.30;;
4021;SDS011;2025;48.260;16.432;2023-11-19T13:19:13;11.55;;;5.47;;
4021;SDS011;2025;48.260;16.432;2023-11-19T13:21:41;13.10;;;5.65;;
4021;SDS011;2025;48.260;16.432;2023-11-19T13:24:11;11.50;;;5.82;;
4021;SDS011;2025;48.260;16.432;2023-11-19T13:26:39;13.40;;;6.00;;
4021;SDS011;2025;48.260;16.432;2023-11-19T13:29:06;13.45;;;7.38;;
4021;SDS011;2025;48.260;16.432;2023-11-19T13:31:36;11.52;;;5.57;;
4021;SDS011;2025;48.260;16.432;2023-11-19T13:34:03;11.95;;;5.05;;
4021;SDS011;2025;48.260;16.432;2023-11-19T13:36:32;13.77;;;5.38;;
4021;SDS011;2025;48.260;16.432;2023-11-19T13:38:59;12.38;;;5.10;;
4021;SDS011;2025;48.260;16.432;2023-11-19T13:41:26;11.80;;;5.65;;
4021;SDS011;2025;48.260;16.432;2023-11-19T13:43:55;14.40;;;5.85;;
4021;SDS011;2025;48.260;16.432;2023-11-19T13:46:22;13.93;;;6.30;;
4021;SDS011;2025;48.260;16.432;2023-11-19T13:48:49;11.77;;;5.40;;
4021;SDS011;2025;48.260;16.432;2023-11-19T13:51:15;13.95;;;6.13;;
4021;SDS011;2025;48.260;16.432;2023-11-19T13:53:42;11.05;;;5.22;;
4021;SDS011;2025;48.260;16.432;2023-11-19T13:56:09;11.05;;;5.07;;
4021;SDS011;2025;48.260;16.432;2023-11-19T13:58:37;13.73;;;5.40;;
4021;SDS011;2025;48.260;16.432;2023-11-19T14:01:07;14.18;;;6.93;;
4021;SDS011;2025;48.260;16.432;2023-11-19T14:03:34;10.90;;;5.68;;
4021;SDS011;2025;48.260;16.432;2023-11-19T14:06:01;12.88;;;5.72;;
4021;SDS011;2025;48.260;16.432;2023-11-19T14:08:28;15.23;;;5.40;;
4021;SDS011;2025;48.260;16.432;2023-11-19T14:10:55;13.88;;;6.07;;
4021;SDS011;2025;48.260;16.432;2023-11-19T14:13:22;12.88;;;5.65;;
4021;SDS011;2025;48.260;16.432;2023-11-19T14:15:49;12.13;;;5.43;;
4021;SDS011;2025;48.260;16.432;2023-11-19T14:18:17;13.48;;;6.68;;
4021;SDS011;2025;48.260;16.432;2023-11-19T14:20:45;13.27;;;5.95;;
4021;SDS011;2025;48.260;16.432;2023-11-19T14:23:12;14.85;;;6.63;;
4021;SDS011;2025;48.260;16.432;2023-11-19T14:25:39;14.25;;;5.93;;
4021;SDS011;2025;48.260;16.432;2023-11-19T14:28:06;14.77;;;6.80;;
4021;SDS011;2025;48.260;16.432;2023-11-19T14:30:33;13.98;;;6.47;;
4021;SDS011;2025;48.260;16.432;2023-11-19T14:33:00;13.23;;;6.57;;
4021;SDS011;2025;48.260;16.432;2023-11-19T14:35:29;14.48;;;6.65;;
4021;SDS011;2025;48.260;16.432;2023-11-19T14:37:57;13.32;;;7.15;;
4021;SDS011;2025;48.260;16.432;2023-11-19T14:40:24;13.32;;;6.32;;
4021;SDS011;2025;48.260;16.432;2023-11-19T14:42:51;14.05;;;5.57;;
4021;SDS011;2025;48.260;16.432;2023-11-19T14:45:18;12.68;;;6.25;;
4021;SDS011;2025;48.260;16.432;2023-11-19T14:47:46;14.13;;;6.70;;
4021;SDS011;2025;48.260;16.432;2023-11-19T14:50:13;13.50;;;6.30;;
4021;SDS011;2025;48.260;16.432;2023-11-19T14:52:41;14.57;;;6.07;;
4021;SDS011;2025;48.260;16.432;2023-11-19T14:55:09;14.80;;;7.20;;
4021;SDS011;2025;48.260;16.432;2023-11-19T14:57:36;15.05;;;6.80;;
4021;SDS011;2025;48.260;16.432;2023-11-19T15:00:05;15.98;;;6.72;;
4021;SDS011;2025;48.260;16.432;2023-11-19T15:02:38;16.35;;;6.65;;
4021;SDS011;2025;48.260;16.432;2023-11-19T15:05:06;16.23;;;7.07;;
4021;SDS011;2025;48.260;16.432;2023-11-19T15:07:35;15.70;;;6.93;;